< < Back
Terminal Aerodrome Forecast


Current Version              Previous Versions:   1  2  3  4  5  6  7  8  9  

Terminal Aerodrome Forecast

090
FTUS44 KMRX 271732
TAFTYS
TAF
KTYS 271732Z 2718/2818 30010KT P6SM BKN030
     FM272200 33005KT P6SM BKN035
     FM280800 34005KT P6SM SCT250=



Latest METAR

790
SAUS80 KWBC 271800
MTRTYS
METAR KTYS 271753Z 28009KT 10SM SCT017 BKN023 OVC038 03/M01 A3027 RMK
AO2 SLP255 60001 I6000 T00331006 10044 20022 50013


USA.gov is the U.S. government's official web portal to all federal, state and local government web resources and services.